createdAt,value
2023-01-13T00:01:37.002Z,6.00
2023-01-13T00:04:39.377Z,5.97
2023-01-13T00:07:41.939Z,6.15
2023-01-13T00:10:48.461Z,6.70
2023-01-13T00:13:50.715Z,5.62
2023-01-13T00:16:52.906Z,5.10
2023-01-13T00:19:55.116Z,5.57
2023-01-13T00:22:59.002Z,5.62
2023-01-13T00:26:05.110Z,5.43
2023-01-13T00:29:07.337Z,5.18
2023-01-13T00:32:09.564Z,5.77
2023-01-13T00:35:11.826Z,5.30
2023-01-13T00:38:14.185Z,5.15
2023-01-13T00:41:19.389Z,5.12
2023-01-13T00:44:21.558Z,5.07
2023-01-13T00:47:23.768Z,6.83
2023-01-13T00:50:27.247Z,5.17
2023-01-13T00:53:33.374Z,5.30
2023-01-13T00:56:40.189Z,4.60
2023-01-13T00:59:43.301Z,3.80
2023-01-13T01:02:45.615Z,4.47
2023-01-13T01:05:48.471Z,4.50
2023-01-13T01:08:51.694Z,4.25
2023-01-13T01:11:53.956Z,4.55
2023-01-13T01:14:56.096Z,4.75
2023-01-13T01:17:58.320Z,4.60
2023-01-13T01:21:01.421Z,4.37
2023-01-13T01:24:04.711Z,4.12
2023-01-13T01:27:06.993Z,4.75
2023-01-13T01:30:09.844Z,4.45
2023-01-13T01:33:12.151Z,4.50
2023-01-13T01:36:16.435Z,4.07
2023-01-13T01:39:18.771Z,4.07
2023-01-13T01:42:41.742Z,4.18
2023-01-13T01:45:44.219Z,5.30
2023-01-13T01:48:46.754Z,4.80
2023-01-13T01:51:56.291Z,3.50
2023-01-13T01:55:18.454Z,4.82
2023-01-13T01:58:28.274Z,4.10
2023-01-13T02:01:31.095Z,4.20
2023-01-13T02:04:38.808Z,4.97
2023-01-13T02:07:43.773Z,6.47
2023-01-13T02:10:53.286Z,5.53
2023-01-13T02:13:55.555Z,5.43
2023-01-13T02:16:57.762Z,4.62
2023-01-13T02:20:21.253Z,4.27
2023-01-13T02:24:03.097Z,3.60
2023-01-13T02:27:42.954Z,2.97
2023-01-13T02:31:16.928Z,2.40
2023-01-13T02:34:42.725Z,3.33
2023-01-13T02:37:45.348Z,2.50
2023-01-13T02:41:32.012Z,2.77
2023-01-13T02:44:59.292Z,2.80
2023-01-13T02:48:05.384Z,3.65
2023-01-13T02:51:13.495Z,3.37
2023-01-13T02:54:22.462Z,3.90
2023-01-13T02:57:26.810Z,3.77
2023-01-13T03:00:31.006Z,3.67
2023-01-13T03:03:33.070Z,3.70
2023-01-13T03:06:41.207Z,4.10
2023-01-13T03:09:52.007Z,3.20
2023-01-13T03:12:54.146Z,3.57
2023-01-13T03:16:02.285Z,3.70
2023-01-13T03:19:21.825Z,3.28
2023-01-13T03:22:30.470Z,3.67
2023-01-13T03:25:39.072Z,3.53
2023-01-13T03:28:49.228Z,3.47
2023-01-13T03:32:10.230Z,3.95
2023-01-13T03:35:18.471Z,3.58
2023-01-13T03:38:50.486Z,3.58
2023-01-13T03:42:00.036Z,2.83
2023-01-13T03:45:07.305Z,3.43
2023-01-13T03:48:15.617Z,3.22
2023-01-13T03:51:20.368Z,3.28
2023-01-13T03:54:25.803Z,3.87
2023-01-13T03:57:34.666Z,2.80
2023-01-13T04:00:47.162Z,2.50
2023-01-13T04:04:01.648Z,3.05
2023-01-13T04:07:33.062Z,2.90
2023-01-13T04:10:46.802Z,3.10
2023-01-13T04:13:50.166Z,3.20
2023-01-13T04:16:52.997Z,3.00
2023-01-13T04:19:55.189Z,3.55
2023-01-13T04:22:57.348Z,3.87
2023-01-13T04:25:59.896Z,3.87
2023-01-13T04:29:20.846Z,4.00
2023-01-13T04:32:22.964Z,4.00
2023-01-13T04:35:25.267Z,4.05
2023-01-13T04:38:27.423Z,5.10
2023-01-13T04:41:49.484Z,4.05
2023-01-13T04:44:51.546Z,5.10
2023-01-13T04:47:53.707Z,4.07
2023-01-13T04:50:55.857Z,5.25
2023-01-13T04:53:57.967Z,5.87
2023-01-13T04:57:00.012Z,5.40
2023-01-13T05:00:02.531Z,5.70
2023-01-13T05:03:05.044Z,4.17
2023-01-13T05:06:07.275Z,5.07
2023-01-13T05:09:11.771Z,4.55
2023-01-13T05:12:32.728Z,4.82
2023-01-13T05:15:53.331Z,3.50
2023-01-13T05:18:55.533Z,3.80
2023-01-13T05:22:17.599Z,4.10
2023-01-13T05:25:22.538Z,3.60
2023-01-13T05:28:25.061Z,4.07
2023-01-13T05:31:27.149Z,4.10
2023-01-13T05:34:29.230Z,3.80
2023-01-13T05:37:31.376Z,5.05
2023-01-13T05:40:53.344Z,3.80
2023-01-13T05:43:55.525Z,5.62
2023-01-13T05:46:57.752Z,4.80
2023-01-13T05:50:00.049Z,4.40
2023-01-13T05:53:02.164Z,4.90
2023-01-13T05:56:05.295Z,4.80
2023-01-13T05:59:07.397Z,4.32
2023-01-13T06:02:09.488Z,4.97
2023-01-13T06:05:11.609Z,4.90
2023-01-13T06:08:14.509Z,5.00
2023-01-13T06:11:16.592Z,5.22
2023-01-13T06:14:18.635Z,5.93
2023-01-13T06:17:20.686Z,4.73
2023-01-13T06:20:25.579Z,3.93
2023-01-13T06:23:28.924Z,5.30
2023-01-13T06:26:36.958Z,5.30
2023-01-13T06:29:39.364Z,6.47
2023-01-13T06:32:46.221Z,5.50
2023-01-13T06:35:56.690Z,3.80
2023-01-13T06:39:02.730Z,3.80
2023-01-13T06:42:23.845Z,4.70
2023-01-13T06:45:27.861Z,3.78
2023-01-13T06:48:35.885Z,4.33
2023-01-13T06:51:38.068Z,4.57
2023-01-13T06:54:40.239Z,4.75
2023-01-13T06:57:56.710Z,3.95
2023-01-13T07:01:02.098Z,3.20
2023-01-13T07:04:04.455Z,5.13
2023-01-13T07:07:07.928Z,5.33
2023-01-13T07:10:13.261Z,4.00
2023-01-13T07:13:34.979Z,4.85
2023-01-13T07:16:37.155Z,4.35
2023-01-13T07:19:39.450Z,5.73
2023-01-13T07:22:41.990Z,5.60
2023-01-13T07:25:44.099Z,4.22
2023-01-13T07:28:46.241Z,6.18
2023-01-13T07:31:50.081Z,5.82
2023-01-13T07:34:52.690Z,7.03
2023-01-13T07:37:54.748Z,6.27
2023-01-13T07:40:56.863Z,5.95
2023-01-13T07:44:00.380Z,5.07
2023-01-13T07:47:02.547Z,3.05
2023-01-13T07:50:05.209Z,4.77
2023-01-13T07:53:08.745Z,4.37
2023-01-13T07:56:10.921Z,3.95
2023-01-13T07:59:13.318Z,4.15
2023-01-13T08:02:15.749Z,4.40
2023-01-13T08:05:18.616Z,4.47
2023-01-13T08:08:20.820Z,3.87
2023-01-13T08:11:23.723Z,4.05
2023-01-13T08:14:25.893Z,4.90
2023-01-13T08:17:28.034Z,4.22
2023-01-13T08:20:30.574Z,3.73
2023-01-13T08:23:32.661Z,5.87
2023-01-13T08:26:34.805Z,5.03
2023-01-13T08:29:37.255Z,4.95
2023-01-13T08:32:39.856Z,6.28
2023-01-13T08:35:42.343Z,6.17
2023-01-13T08:38:44.470Z,4.80
2023-01-13T08:41:55.739Z,4.47
2023-01-13T08:44:57.889Z,5.18
2023-01-13T08:48:00.019Z,6.32
2023-01-13T08:51:07.124Z,5.57
2023-01-13T08:54:09.403Z,5.40
2023-01-13T08:57:12.132Z,4.80
2023-01-13T09:00:17.290Z,3.90
2023-01-13T09:03:19.683Z,2.00
2023-01-13T09:06:21.837Z,2.90
2023-01-13T09:09:25.508Z,4.53
2023-01-13T09:12:46.940Z,4.15
2023-01-13T09:15:49.944Z,3.17
2023-01-13T09:18:52.069Z,3.62
2023-01-13T09:21:57.007Z,4.70
2023-01-13T09:24:59.244Z,3.97
2023-01-13T09:28:01.435Z,4.70
2023-01-13T09:31:04.346Z,4.00
2023-01-13T09:34:25.823Z,3.47
2023-01-13T09:37:39.259Z,3.50
2023-01-13T09:40:44.173Z,4.10
2023-01-13T09:43:57.263Z,3.92
2023-01-13T09:47:03.674Z,3.95
2023-01-13T09:50:15.070Z,4.75
2023-01-13T09:53:25.727Z,4.83
2023-01-13T09:56:27.931Z,5.30
2023-01-13T09:59:36.484Z,4.20
2023-01-13T10:03:02.096Z,5.12
2023-01-13T10:06:19.633Z,4.90
2023-01-13T10:09:24.888Z,5.40
2023-01-13T10:12:46.023Z,5.50
2023-01-13T10:15:54.209Z,5.75
2023-01-13T10:19:06.720Z,5.55
2023-01-13T10:22:27.833Z,4.93
2023-01-13T10:25:43.510Z,5.90
2023-01-13T10:28:52.307Z,5.63
2023-01-13T10:31:56.551Z,4.72
2023-01-13T10:34:58.654Z,5.43
2023-01-13T10:38:00.765Z,7.68
2023-01-13T10:41:07.029Z,8.27
2023-01-13T10:44:17.600Z,6.77
2023-01-13T10:47:32.098Z,7.25
2023-01-13T10:50:37.158Z,7.00
2023-01-13T10:53:52.728Z,5.85
2023-01-13T10:57:18.919Z,6.47
2023-01-13T11:00:34.220Z,7.80
2023-01-13T11:03:43.125Z,7.65
2023-01-13T11:06:47.322Z,6.97
2023-01-13T11:10:02.024Z,6.85
2023-01-13T11:14:02.976Z,5.53
2023-01-13T11:17:22.924Z,4.57
2023-01-13T11:20:32.702Z,5.25
2023-01-13T11:23:39.933Z,4.82
2023-01-13T11:26:48.077Z,4.78
2023-01-13T11:30:00.293Z,4.63
2023-01-13T11:33:14.285Z,4.17
2023-01-13T11:36:20.581Z,3.37
2023-01-13T11:39:50.310Z,4.30
2023-01-13T11:43:11.846Z,3.67
2023-01-13T11:46:14.249Z,5.30
2023-01-13T11:49:32.893Z,3.00
2023-01-13T11:53:04.645Z,3.37
2023-01-13T11:56:28.389Z,4.55
2023-01-13T11:59:56.554Z,3.22
2023-01-13T12:03:04.946Z,5.87
2023-01-13T12:06:20.494Z,3.67
2023-01-13T12:09:25.693Z,4.40
2023-01-13T12:12:58.390Z,4.30
2023-01-13T12:16:23.749Z,5.07
2023-01-13T12:19:30.090Z,3.13
2023-01-13T12:22:35.842Z,4.37
2023-01-13T12:25:39.916Z,4.43
2023-01-13T12:28:47.839Z,4.50
2023-01-13T12:31:51.157Z,4.28
2023-01-13T12:34:59.382Z,3.90
2023-01-13T12:38:23.204Z,3.50
2023-01-13T12:42:05.877Z,3.60
2023-01-13T12:45:30.736Z,4.20
2023-01-13T12:48:49.389Z,4.75
2023-01-13T12:51:54.803Z,4.70
2023-01-13T12:54:57.034Z,6.10
2023-01-13T12:58:04.893Z,4.53
2023-01-13T13:01:15.314Z,5.68
2023-01-13T13:04:19.176Z,5.70
2023-01-13T13:07:30.275Z,5.13
2023-01-13T13:10:40.778Z,5.10
2023-01-13T13:13:47.740Z,5.05
2023-01-13T13:16:53.940Z,5.45
2023-01-13T13:19:57.832Z,4.22
2023-01-13T13:23:00.047Z,4.43
2023-01-13T13:26:26.954Z,5.30
2023-01-13T13:29:44.160Z,6.43
2023-01-13T13:33:04.512Z,5.18
2023-01-13T13:36:44.949Z,4.10
2023-01-13T13:40:05.861Z,4.83
2023-01-13T13:43:31.765Z,5.70
2023-01-13T13:46:47.177Z,5.62
2023-01-13T13:49:55.115Z,5.00
2023-01-13T13:53:08.754Z,4.60
2023-01-13T13:56:21.736Z,5.53
2023-01-13T13:59:27.137Z,7.90
2023-01-13T14:02:32.254Z,5.30
2023-01-13T14:05:36.182Z,6.18
2023-01-13T14:08:46.634Z,6.47
2023-01-13T14:11:57.779Z,5.00
2023-01-13T14:15:00.144Z,4.50
2023-01-13T14:18:05.485Z,5.47
2023-01-13T14:21:27.156Z,5.40
2023-01-13T14:24:30.456Z,5.05
2023-01-13T14:27:33.591Z,5.80
2023-01-13T14:30:38.703Z,6.57
2023-01-13T14:33:49.151Z,6.70
2023-01-13T14:36:51.495Z,6.12
2023-01-13T14:39:53.787Z,7.35
2023-01-13T14:43:04.242Z,8.90
2023-01-13T14:46:06.406Z,9.37
2023-01-13T14:49:39.930Z,9.95
2023-01-13T14:52:50.717Z,6.18
2023-01-13T14:55:52.813Z,5.82
2023-01-13T14:58:54.932Z,6.13
2023-01-13T15:01:57.366Z,6.57
2023-01-13T15:05:17.891Z,9.95
2023-01-13T15:08:34.582Z,8.25
2023-01-13T15:11:37.199Z,7.68
2023-01-13T15:14:40.056Z,7.53
2023-01-13T15:17:42.724Z,9.07
2023-01-13T15:20:45.790Z,6.70
2023-01-13T15:23:47.922Z,6.50
2023-01-13T15:26:50.160Z,6.10
2023-01-13T15:29:52.570Z,6.73
2023-01-13T15:32:56.737Z,6.63
2023-01-13T15:35:58.876Z,6.82
2023-01-13T15:39:01.552Z,6.12
2023-01-13T15:42:22.093Z,7.80
2023-01-13T15:45:42.823Z,6.97
2023-01-13T15:48:44.905Z,7.17
2023-01-13T15:51:49.089Z,7.60
2023-01-13T15:54:53.483Z,9.27
2023-01-13T15:57:55.745Z,7.37
2023-01-13T16:00:58.031Z,7.37
2023-01-13T16:04:00.151Z,8.23
2023-01-13T16:07:02.265Z,7.15
2023-01-13T16:10:06.594Z,7.45
2023-01-13T16:13:08.750Z,8.07
2023-01-13T16:16:29.000Z,6.60
2023-01-13T16:19:31.618Z,4.47
2023-01-13T16:22:33.748Z,6.10
2023-01-13T16:25:35.863Z,6.65
2023-01-13T16:28:37.989Z,7.85
2023-01-13T16:31:40.258Z,9.83
2023-01-13T16:34:43.041Z,7.97
2023-01-13T16:37:49.416Z,7.75
2023-01-13T16:40:53.728Z,8.05
2023-01-13T16:43:55.925Z,7.75
2023-01-13T16:46:57.956Z,7.73
2023-01-13T16:50:00.250Z,8.10
2023-01-13T16:53:04.138Z,8.80
2023-01-13T16:56:34.018Z,9.40
2023-01-13T16:59:36.190Z,8.90
2023-01-13T17:02:39.180Z,7.87
2023-01-13T17:05:43.658Z,8.10
2023-01-13T17:08:46.020Z,9.82
2023-01-13T17:11:48.466Z,11.95
2023-01-13T17:14:51.177Z,17.12
2023-01-13T17:17:55.687Z,16.87
2023-01-13T17:20:59.073Z,16.10
2023-01-13T17:24:08.121Z,9.60
2023-01-13T17:27:10.686Z,8.27
2023-01-13T17:30:14.670Z,8.35
2023-01-13T17:33:17.798Z,5.73
2023-01-13T17:36:20.333Z,9.30
2023-01-13T17:39:25.364Z,8.63
2023-01-13T17:42:31.376Z,8.38
2023-01-13T17:45:33.989Z,8.85
2023-01-13T17:48:36.555Z,9.00
2023-01-13T17:51:39.205Z,10.17
2023-01-13T17:54:43.263Z,9.93
2023-01-13T17:57:46.919Z,12.93
2023-01-13T18:00:50.776Z,11.48
2023-01-13T18:03:53.443Z,12.40
2023-01-13T18:06:57.304Z,9.03
2023-01-13T18:09:59.908Z,11.07
2023-01-13T18:13:04.076Z,10.20
2023-01-13T18:16:10.347Z,10.25
2023-01-13T18:19:32.096Z,10.80
2023-01-13T18:22:54.929Z,10.60
2023-01-13T18:26:16.656Z,10.05
2023-01-13T18:29:20.042Z,10.30
2023-01-13T18:32:27.134Z,10.52
2023-01-13T18:35:30.304Z,11.60
2023-01-13T18:38:33.120Z,11.27
2023-01-13T18:41:55.402Z,10.95
2023-01-13T18:44:59.325Z,10.05
2023-01-13T18:48:04.119Z,9.38
2023-01-13T18:51:07.590Z,10.40
2023-01-13T18:54:10.389Z,11.67
2023-01-13T18:57:13.795Z,12.68
2023-01-13T19:00:21.771Z,12.90
2023-01-13T19:03:32.876Z,12.35
2023-01-13T19:06:36.810Z,12.30
2023-01-13T19:09:40.040Z,12.37
2023-01-13T19:12:44.450Z,12.27
2023-01-13T19:15:48.529Z,13.60
2023-01-13T19:18:52.506Z,12.80
2023-01-13T19:21:56.736Z,8.83
2023-01-13T19:25:01.986Z,13.87
2023-01-13T19:28:05.600Z,14.35
2023-01-13T19:31:11.725Z,14.77
2023-01-13T19:34:15.850Z,13.75
2023-01-13T19:37:20.081Z,14.27
2023-01-13T19:40:25.214Z,14.97
2023-01-13T19:43:47.801Z,14.43
2023-01-13T19:46:50.868Z,14.95
2023-01-13T19:49:54.161Z,13.32
2023-01-13T19:52:59.930Z,12.23
2023-01-13T19:56:04.302Z,13.87
2023-01-13T19:59:09.531Z,10.38
2023-01-13T20:02:31.787Z,13.32
2023-01-13T20:05:35.657Z,14.35
2023-01-13T20:08:39.534Z,13.80
2023-01-13T20:11:43.107Z,13.00
2023-01-13T20:14:48.410Z,13.38
2023-01-13T20:17:51.508Z,14.80
2023-01-13T20:20:57.455Z,14.27
2023-01-13T20:24:01.425Z,14.83
2023-01-13T20:27:07.096Z,13.73
2023-01-13T20:30:14.696Z,15.10
2023-01-13T20:33:22.514Z,15.55
2023-01-13T20:36:34.077Z,18.77
2023-01-13T20:39:37.072Z,13.60
2023-01-13T20:42:45.937Z,13.93
2023-01-13T20:45:50.514Z,16.12
2023-01-13T20:48:53.941Z,13.60
2023-01-13T20:51:58.904Z,11.10
2023-01-13T20:55:03.302Z,11.37
2023-01-13T20:58:06.103Z,14.17
2023-01-13T21:01:09.265Z,14.07
2023-01-13T21:04:12.538Z,13.57
2023-01-13T21:07:16.356Z,14.30
2023-01-13T21:10:19.590Z,13.30
2023-01-13T21:13:41.548Z,13.13
2023-01-13T21:16:45.671Z,13.07
2023-01-13T21:19:49.353Z,14.63
2023-01-13T21:22:52.049Z,14.02
2023-01-13T21:25:54.993Z,14.50
2023-01-13T21:28:58.601Z,14.50
2023-01-13T21:32:00.970Z,14.82
2023-01-13T21:35:03.547Z,15.65
2023-01-13T21:38:06.889Z,14.80
2023-01-13T21:41:13.624Z,15.27
2023-01-13T21:44:37.413Z,13.77
2023-01-13T21:47:48.620Z,15.38
2023-01-13T21:50:51.211Z,14.85
2023-01-13T21:53:55.112Z,15.23
2023-01-13T21:56:58.161Z,15.70
2023-01-13T22:00:01.642Z,14.30
2023-01-13T22:03:07.335Z,15.85
2023-01-13T22:06:10.503Z,14.43
2023-01-13T22:09:13.618Z,12.52
2023-01-13T22:12:22.339Z,13.40
2023-01-13T22:15:28.099Z,12.53
2023-01-13T22:18:30.566Z,12.55
2023-01-13T22:21:33.704Z,13.35
2023-01-13T22:24:39.642Z,13.93
2023-01-13T22:27:45.104Z,14.00
2023-01-13T22:30:50.617Z,14.20
2023-01-13T22:33:55.011Z,13.32
2023-01-13T22:36:59.024Z,15.27
2023-01-13T22:40:02.769Z,12.02
2023-01-13T22:43:05.502Z,7.47
2023-01-13T22:46:13.051Z,12.73
2023-01-13T22:49:17.635Z,13.62
2023-01-13T22:52:22.618Z,13.25
2023-01-13T22:55:25.919Z,13.70
2023-01-13T22:58:29.917Z,13.40
2023-01-13T23:01:35.811Z,12.20
2023-01-13T23:04:38.670Z,15.18
2023-01-13T23:07:41.275Z,16.92
2023-01-13T23:10:44.449Z,16.45
2023-01-13T23:13:47.117Z,15.90
2023-01-13T23:16:49.295Z,14.93
2023-01-13T23:19:51.460Z,15.48
2023-01-13T23:22:53.529Z,18.15
2023-01-13T23:25:56.589Z,13.35
2023-01-13T23:29:07.302Z,15.30
2023-01-13T23:32:09.497Z,17.23
2023-01-13T23:35:11.984Z,18.65
2023-01-13T23:38:14.102Z,18.05
2023-01-13T23:41:19.051Z,17.77
2023-01-13T23:44:21.272Z,18.47
2023-01-13T23:47:23.437Z,17.87
2023-01-13T23:50:27.232Z,18.23
2023-01-13T23:53:35.506Z,18.55
2023-01-13T23:56:39.650Z,17.80
2023-01-13T23:59:41.792Z,18.87
